sensor_id;sensor_type;location;lat;lon;timestamp;temperature;humidity
43772;HTU21D;59066;54.782;32.024;2022-11-20T00:01:22;-4.06;78.95
43772;HTU21D;59066;54.782;32.024;2022-11-20T00:03:51;-3.91;79.41
43772;HTU21D;59066;54.782;32.024;2022-11-20T00:06:20;-3.92;78.83
43772;HTU21D;59066;54.782;32.024;2022-11-20T00:08:48;-3.98;79.00
43772;HTU21D;59066;54.782;32.024;2022-11-20T00:11:17;-3.93;79.01
43772;HTU21D;59066;54.782;32.024;2022-11-20T00:13:47;-3.95;78.98
43772;HTU21D;59066;54.782;32.024;2022-11-20T00:16:17;-3.87;78.71
43772;HTU21D;59066;54.782;32.024;2022-11-20T00:18:45;-3.90;78.63
43772;HTU21D;59066;54.782;32.024;2022-11-20T00:21:18;-3.87;78.65
43772;HTU21D;59066;54.782;32.024;2022-11-20T00:23:45;-3.84;78.70
43772;HTU21D;59066;54.782;32.024;2022-11-20T00:26:15;-3.83;78.56
43772;HTU21D;59066;54.782;32.024;2022-11-20T00:28:44;-3.90;78.36
43772;HTU21D;59066;54.782;32.024;2022-11-20T00:31:15;-3.93;78.88
43772;HTU21D;59066;54.782;32.024;2022-11-20T00:33:44;-3.93;78.69
43772;HTU21D;59066;54.782;32.024;2022-11-20T00:36:23;-3.93;79.24
43772;HTU21D;59066;54.782;32.024;2022-11-20T00:38:52;-3.93;78.40
43772;HTU21D;59066;54.782;32.024;2022-11-20T00:41:20;-3.92;78.28
43772;HTU21D;59066;54.782;32.024;2022-11-20T00:43:48;-3.96;78.37
43772;HTU21D;59066;54.782;32.024;2022-11-20T00:46:17;-4.02;78.41
43772;HTU21D;59066;54.782;32.024;2022-11-20T00:48:45;-4.00;78.42
43772;HTU21D;59066;54.782;32.024;2022-11-20T00:51:15;-4.02;78.64
43772;HTU21D;59066;54.782;32.024;2022-11-20T00:53:43;-4.00;77.98
43772;HTU21D;59066;54.782;32.024;2022-11-20T00:56:13;-4.10;78.14
43772;HTU21D;59066;54.782;32.024;2022-11-20T00:58:43;-4.17;78.17
43772;HTU21D;59066;54.782;32.024;2022-11-20T01:01:14;-4.25;78.18
43772;HTU21D;59066;54.782;32.024;2022-11-20T01:03:47;-4.26;78.21
43772;HTU21D;59066;54.782;32.024;2022-11-20T01:06:23;-4.24;78.40
43772;HTU21D;59066;54.782;32.024;2022-11-20T01:08:53;-4.28;78.10
43772;HTU21D;59066;54.782;32.024;2022-11-20T01:11:23;-4.32;78.14
43772;HTU21D;59066;54.782;32.024;2022-11-20T01:13:52;-4.35;78.17
43772;HTU21D;59066;54.782;32.024;2022-11-20T01:16:23;-4.40;78.13
43772;HTU21D;59066;54.782;32.024;2022-11-20T01:18:52;-4.39;78.36
43772;HTU21D;59066;54.782;32.024;2022-11-20T01:21:28;-4.43;78.24
43772;HTU21D;59066;54.782;32.024;2022-11-20T01:23:56;-4.49;77.98
43772;HTU21D;59066;54.782;32.024;2022-11-20T01:26:26;-4.57;78.05
43772;HTU21D;59066;54.782;32.024;2022-11-20T01:28:54;-4.52;78.27
43772;HTU21D;59066;54.782;32.024;2022-11-20T01:31:24;-4.67;78.27
43772;HTU21D;59066;54.782;32.024;2022-11-20T01:33:54;-4.75;78.33
43772;HTU21D;59066;54.782;32.024;2022-11-20T01:36:23;-4.78;78.47
43772;HTU21D;59066;54.782;32.024;2022-11-20T01:38:55;-4.82;78.40
43772;HTU21D;59066;54.782;32.024;2022-11-20T01:41:23;-4.84;78.22
43772;HTU21D;59066;54.782;32.024;2022-11-20T01:44:12;-4.90;78.43
43772;HTU21D;59066;54.782;32.024;2022-11-20T01:47:07;-4.99;78.50
43772;HTU21D;59066;54.782;32.024;2022-11-20T01:49:39;-5.01;78.24
43772;HTU21D;59066;54.782;32.024;2022-11-20T01:52:15;-4.96;78.46
43772;HTU21D;59066;54.782;32.024;2022-11-20T01:54:59;-5.02;78.18
43772;HTU21D;59066;54.782;32.024;2022-11-20T01:57:29;-5.03;78.68
43772;HTU21D;59066;54.782;32.024;2022-11-20T02:00:04;-5.04;78.65
43772;HTU21D;59066;54.782;32.024;2022-11-20T02:02:39;-5.05;78.59
43772;HTU21D;59066;54.782;32.024;2022-11-20T02:05:20;-5.09;78.36
43772;HTU21D;59066;54.782;32.024;2022-11-20T02:07:49;-5.05;78.63
43772;HTU21D;59066;54.782;32.024;2022-11-20T02:10:17;-5.08;78.71
43772;HTU21D;59066;54.782;32.024;2022-11-20T02:12:45;-5.11;78.55
43772;HTU21D;59066;54.782;32.024;2022-11-20T02:15:32;-5.10;78.79
43772;HTU21D;59066;54.782;32.024;2022-11-20T02:18:00;-5.17;78.57
43772;HTU21D;59066;54.782;32.024;2022-11-20T02:20:28;-5.30;78.57
43772;HTU21D;59066;54.782;32.024;2022-11-20T02:25:45;-5.40;79.16
43772;HTU21D;59066;54.782;32.024;2022-11-20T02:28:13;-5.40;79.49
43772;HTU21D;59066;54.782;32.024;2022-11-20T02:30:40;-5.34;79.59
43772;HTU21D;59066;54.782;32.024;2022-11-20T02:33:07;-5.37;79.33
43772;HTU21D;59066;54.782;32.024;2022-11-20T02:38:02;-5.44;79.46
43772;HTU21D;59066;54.782;32.024;2022-11-20T02:40:30;-5.39;79.33
43772;HTU21D;59066;54.782;32.024;2022-11-20T02:42:57;-5.42;79.34
43772;HTU21D;59066;54.782;32.024;2022-11-20T02:45:25;-5.44;79.37
43772;HTU21D;59066;54.782;32.024;2022-11-20T02:47:53;-5.43;79.30
43772;HTU21D;59066;54.782;32.024;2022-11-20T02:50:20;-5.49;79.33
43772;HTU21D;59066;54.782;32.024;2022-11-20T02:52:48;-5.53;79.49
43772;HTU21D;59066;54.782;32.024;2022-11-20T02:55:15;-5.54;79.38
43772;HTU21D;59066;54.782;32.024;2022-11-20T02:57:42;-5.50;79.46
43772;HTU21D;59066;54.782;32.024;2022-11-20T03:00:10;-5.53;79.66
43772;HTU21D;59066;54.782;32.024;2022-11-20T03:02:38;-5.54;79.12
43772;HTU21D;59066;54.782;32.024;2022-11-20T03:05:05;-5.57;78.98
43772;HTU21D;59066;54.782;32.024;2022-11-20T03:07:32;-5.58;79.22
43772;HTU21D;59066;54.782;32.024;2022-11-20T03:10:00;-5.67;79.01
43772;HTU21D;59066;54.782;32.024;2022-11-20T03:12:27;-5.68;79.14
43772;HTU21D;59066;54.782;32.024;2022-11-20T03:14:54;-5.67;79.17
43772;HTU21D;59066;54.782;32.024;2022-11-20T03:17:22;-5.70;79.09
43772;HTU21D;59066;54.782;32.024;2022-11-20T03:19:49;-5.56;79.25
43772;HTU21D;59066;54.782;32.024;2022-11-20T03:22:16;-5.64;78.80
43772;HTU21D;59066;54.782;32.024;2022-11-20T03:24:44;-5.65;79.15
43772;HTU21D;59066;54.782;32.024;2022-11-20T03:27:11;-5.65;78.79
43772;HTU21D;59066;54.782;32.024;2022-11-20T03:29:38;-5.64;79.00
43772;HTU21D;59066;54.782;32.024;2022-11-20T03:32:06;-5.69;78.82
43772;HTU21D;59066;54.782;32.024;2022-11-20T03:34:33;-5.68;79.17
43772;HTU21D;59066;54.782;32.024;2022-11-20T03:37:00;-5.67;78.76
43772;HTU21D;59066;54.782;32.024;2022-11-20T03:39:28;-5.74;78.55
43772;HTU21D;59066;54.782;32.024;2022-11-20T03:41:55;-5.71;78.79
43772;HTU21D;59066;54.782;32.024;2022-11-20T03:44:22;-5.69;79.11
43772;HTU21D;59066;54.782;32.024;2022-11-20T03:46:50;-5.70;78.85
43772;HTU21D;59066;54.782;32.024;2022-11-20T03:49:17;-5.65;78.82
43772;HTU21D;59066;54.782;32.024;2022-11-20T03:51:44;-5.77;78.54
43772;HTU21D;59066;54.782;32.024;2022-11-20T03:54:12;-5.84;78.50
43772;HTU21D;59066;54.782;32.024;2022-11-20T03:56:39;-5.85;78.63
43772;HTU21D;59066;54.782;32.024;2022-11-20T03:59:10;-5.83;78.40
43772;HTU21D;59066;54.782;32.024;2022-11-20T04:01:37;-5.94;78.66
43772;HTU21D;59066;54.782;32.024;2022-11-20T04:04:05;-5.99;78.57
43772;HTU21D;59066;54.782;32.024;2022-11-20T04:06:36;-6.03;78.57
43772;HTU21D;59066;54.782;32.024;2022-11-20T04:09:04;-6.07;78.88
43772;HTU21D;59066;54.782;32.024;2022-11-20T04:11:36;-6.12;78.82
43772;HTU21D;59066;54.782;32.024;2022-11-20T04:14:05;-6.08;78.85
43772;HTU21D;59066;54.782;32.024;2022-11-20T04:16:35;-6.02;79.01
43772;HTU21D;59066;54.782;32.024;2022-11-20T04:19:05;-6.04;78.91
43772;HTU21D;59066;54.782;32.024;2022-11-20T04:21:33;-6.06;78.48
43772;HTU21D;59066;54.782;32.024;2022-11-20T04:24:00;-6.05;78.79
43772;HTU21D;59066;54.782;32.024;2022-11-20T04:26:28;-6.06;78.83
43772;HTU21D;59066;54.782;32.024;2022-11-20T04:28:57;-6.08;78.73
43772;HTU21D;59066;54.782;32.024;2022-11-20T04:31:27;-6.01;78.92
43772;HTU21D;59066;54.782;32.024;2022-11-20T04:33:55;-6.03;78.48
43772;HTU21D;59066;54.782;32.024;2022-11-20T04:36:24;-6.08;78.79
43772;HTU21D;59066;54.782;32.024;2022-11-20T04:39:00;-6.06;78.91
43772;HTU21D;59066;54.782;32.024;2022-11-20T04:41:29;-6.05;79.10
43772;HTU21D;59066;54.782;32.024;2022-11-20T04:43:59;-5.99;79.21
43772;HTU21D;59066;54.782;32.024;2022-11-20T04:46:32;-5.92;78.70
43772;HTU21D;59066;54.782;32.024;2022-11-20T04:49:00;-5.93;78.91
43772;HTU21D;59066;54.782;32.024;2022-11-20T04:51:27;-5.96;78.82
43772;HTU21D;59066;54.782;32.024;2022-11-20T04:53:55;-5.90;78.80
43772;HTU21D;59066;54.782;32.024;2022-11-20T04:56:22;-5.91;78.84
43772;HTU21D;59066;54.782;32.024;2022-11-20T04:58:50;-5.84;78.63
43772;HTU21D;59066;54.782;32.024;2022-11-20T05:01:22;-5.87;78.44
43772;HTU21D;59066;54.782;32.024;2022-11-20T05:03:50;-5.84;78.69
43772;HTU21D;59066;54.782;32.024;2022-11-20T05:06:20;-5.87;78.45
43772;HTU21D;59066;54.782;32.024;2022-11-20T05:08:48;-5.88;78.51
43772;HTU21D;59066;54.782;32.024;2022-11-20T05:11:18;-5.83;78.78
43772;HTU21D;59066;54.782;32.024;2022-11-20T05:13:46;-5.72;78.80
43772;HTU21D;59066;54.782;32.024;2022-11-20T05:16:19;-5.71;78.45
43772;HTU21D;59066;54.782;32.024;2022-11-20T05:18:47;-5.75;78.50
43772;HTU21D;59066;54.782;32.024;2022-11-20T05:21:14;-5.78;78.31
43772;HTU21D;59066;54.782;32.024;2022-11-20T05:23:43;-5.79;78.24
43772;HTU21D;59066;54.782;32.024;2022-11-20T05:26:18;-5.83;78.44
43772;HTU21D;59066;54.782;32.024;2022-11-20T05:28:45;-5.82;78.49
43772;HTU21D;59066;54.782;32.024;2022-11-20T05:31:18;-5.84;78.22
43772;HTU21D;59066;54.782;32.024;2022-11-20T05:33:52;-5.91;78.14
43772;HTU21D;59066;54.782;32.024;2022-11-20T05:36:19;-5.91;78.66
43772;HTU21D;59066;54.782;32.024;2022-11-20T05:38:47;-5.83;78.60
43772;HTU21D;59066;54.782;32.024;2022-11-20T05:41:18;-5.84;78.21
43772;HTU21D;59066;54.782;32.024;2022-11-20T05:43:47;-5.83;78.34
43772;HTU21D;59066;54.782;32.024;2022-11-20T05:46:17;-5.90;78.52
43772;HTU21D;59066;54.782;32.024;2022-11-20T05:48:50;-5.93;78.36
43772;HTU21D;59066;54.782;32.024;2022-11-20T05:51:19;-5.83;78.50
43772;HTU21D;59066;54.782;32.024;2022-11-20T05:53:46;-6.00;77.99
43772;HTU21D;59066;54.782;32.024;2022-11-20T05:56:19;-6.18;78.37
43772;HTU21D;59066;54.782;32.024;2022-11-20T05:58:48;-6.21;78.41
43772;HTU21D;59066;54.782;32.024;2022-11-20T06:01:21;-6.29;78.47
43772;HTU21D;59066;54.782;32.024;2022-11-20T06:03:49;-6.29;79.04
43772;HTU21D;59066;54.782;32.024;2022-11-20T06:06:18;-6.21;78.82
43772;HTU21D;59066;54.782;32.024;2022-11-20T06:08:47;-6.24;78.60
43772;HTU21D;59066;54.782;32.024;2022-11-20T06:11:15;-6.15;78.84
43772;HTU21D;59066;54.782;32.024;2022-11-20T06:13:43;-6.19;78.90
43772;HTU21D;59066;54.782;32.024;2022-11-20T06:16:13;-6.18;79.08
43772;HTU21D;59066;54.782;32.024;2022-11-20T06:18:41;-6.17;79.00
43772;HTU21D;59066;54.782;32.024;2022-11-20T06:21:17;-6.08;78.96
43772;HTU21D;59066;54.782;32.024;2022-11-20T06:23:45;-6.09;78.75
43772;HTU21D;59066;54.782;32.024;2022-11-20T06:26:16;-6.11;78.97
43772;HTU21D;59066;54.782;32.024;2022-11-20T06:28:44;-6.05;78.82
43772;HTU21D;59066;54.782;32.024;2022-11-20T06:31:13;-6.08;79.11
43772;HTU21D;59066;54.782;32.024;2022-11-20T06:33:42;-6.01;79.29
43772;HTU21D;59066;54.782;32.024;2022-11-20T06:36:11;-6.06;79.02
43772;HTU21D;59066;54.782;32.024;2022-11-20T06:38:39;-5.96;79.15
43772;HTU21D;59066;54.782;32.024;2022-11-20T06:41:09;-5.97;78.97
43772;HTU21D;59066;54.782;32.024;2022-11-20T06:43:37;-6.03;78.78
43772;HTU21D;59066;54.782;32.024;2022-11-20T06:46:05;-6.00;78.85
43772;HTU21D;59066;54.782;32.024;2022-11-20T06:48:32;-5.94;79.06
43772;HTU21D;59066;54.782;32.024;2022-11-20T06:50:59;-5.89;78.82
43772;HTU21D;59066;54.782;32.024;2022-11-20T06:53:29;-5.88;78.65
43772;HTU21D;59066;54.782;32.024;2022-11-20T06:55:57;-5.84;78.60
43772;HTU21D;59066;54.782;32.024;2022-11-20T06:58:29;-5.89;78.14
43772;HTU21D;59066;54.782;32.024;2022-11-20T07:01:10;-5.92;78.29
43772;HTU21D;59066;54.782;32.024;2022-11-20T07:03:39;-5.96;78.60
43772;HTU21D;59066;54.782;32.024;2022-11-20T07:06:07;-5.98;78.48
43772;HTU21D;59066;54.782;32.024;2022-11-20T07:08:35;-6.03;78.54
43772;HTU21D;59066;54.782;32.024;2022-11-20T07:11:06;-6.11;78.37
43772;HTU21D;59066;54.782;32.024;2022-11-20T07:13:34;-6.14;79.09
43772;HTU21D;59066;54.782;32.024;2022-11-20T07:16:05;-6.06;79.43
43772;HTU21D;59066;54.782;32.024;2022-11-20T07:18:33;-6.06;78.86
43772;HTU21D;59066;54.782;32.024;2022-11-20T07:21:06;-6.09;79.04
43772;HTU21D;59066;54.782;32.024;2022-11-20T07:23:34;-5.98;79.82
43772;HTU21D;59066;54.782;32.024;2022-11-20T07:26:05;-5.84;78.88
43772;HTU21D;59066;54.782;32.024;2022-11-20T07:28:33;-5.93;78.53
43772;HTU21D;59066;54.782;32.024;2022-11-20T07:31:01;-5.92;79.08
43772;HTU21D;59066;54.782;32.024;2022-11-20T07:33:29;-5.91;78.92
43772;HTU21D;59066;54.782;32.024;2022-11-20T07:35:58;-5.87;79.04
43772;HTU21D;59066;54.782;32.024;2022-11-20T07:38:26;-5.81;79.23
43772;HTU21D;59066;54.782;32.024;2022-11-20T07:40:55;-5.85;78.53
43772;HTU21D;59066;54.782;32.024;2022-11-20T07:43:23;-5.85;78.31
43772;HTU21D;59066;54.782;32.024;2022-11-20T07:45:54;-5.90;78.73
43772;HTU21D;59066;54.782;32.024;2022-11-20T07:48:22;-5.96;78.51
43772;HTU21D;59066;54.782;32.024;2022-11-20T07:50:49;-5.89;79.00
43772;HTU21D;59066;54.782;32.024;2022-11-20T07:53:16;-5.76;79.24
43772;HTU21D;59066;54.782;32.024;2022-11-20T07:55:48;-5.72;78.74
43772;HTU21D;59066;54.782;32.024;2022-11-20T07:58:15;-5.75;78.81
43772;HTU21D;59066;54.782;32.024;2022-11-20T08:00:42;-5.67;78.72
43772;HTU21D;59066;54.782;32.024;2022-11-20T08:03:10;-5.55;78.87
43772;HTU21D;59066;54.782;32.024;2022-11-20T08:05:37;-5.50;78.35
43772;HTU21D;59066;54.782;32.024;2022-11-20T08:08:05;-5.57;77.85
43772;HTU21D;59066;54.782;32.024;2022-11-20T08:10:33;-5.56;78.35
43772;HTU21D;59066;54.782;32.024;2022-11-20T08:13:01;-5.59;78.14
43772;HTU21D;59066;54.782;32.024;2022-11-20T08:15:50;-5.56;78.21
43772;HTU21D;59066;54.782;32.024;2022-11-20T08:18:18;-5.50;78.66
43772;HTU21D;59066;54.782;32.024;2022-11-20T08:21:04;-5.26;78.56
43772;HTU21D;59066;54.782;32.024;2022-11-20T08:23:31;-5.33;77.69
43772;HTU21D;59066;54.782;32.024;2022-11-20T08:25:59;-5.33;77.18
43772;HTU21D;59066;54.782;32.024;2022-11-20T08:28:26;-5.52;76.82
43772;HTU21D;59066;54.782;32.024;2022-11-20T08:31:00;-5.61;77.25
43772;HTU21D;59066;54.782;32.024;2022-11-20T08:33:29;-5.60;77.42
43772;HTU21D;59066;54.782;32.024;2022-11-20T08:36:04;-5.55;77.53
43772;HTU21D;59066;54.782;32.024;2022-11-20T08:38:32;-5.45;77.69
43772;HTU21D;59066;54.782;32.024;2022-11-20T08:41:01;-5.26;77.78
43772;HTU21D;59066;54.782;32.024;2022-11-20T08:43:48;-5.26;77.50
43772;HTU21D;59066;54.782;32.024;2022-11-20T08:46:15;-5.10;77.34
43772;HTU21D;59066;54.782;32.024;2022-11-20T08:48:43;-5.09;77.34
43772;HTU21D;59066;54.782;32.024;2022-11-20T08:51:11;-4.91;77.06
43772;HTU21D;59066;54.782;32.024;2022-11-20T08:53:39;-4.81;77.24
43772;HTU21D;59066;54.782;32.024;2022-11-20T08:56:07;-4.56;77.11
43772;HTU21D;59066;54.782;32.024;2022-11-20T08:58:35;-4.48;77.08
43772;HTU21D;59066;54.782;32.024;2022-11-20T09:01:23;-4.35;76.13
43772;HTU21D;59066;54.782;32.024;2022-11-20T09:03:50;-4.42;75.85
43772;HTU21D;59066;54.782;32.024;2022-11-20T09:06:18;-4.40;75.43
43772;HTU21D;59066;54.782;32.024;2022-11-20T09:08:45;-4.27;75.98
43772;HTU21D;59066;54.782;32.024;2022-11-20T09:11:12;-4.08;76.01
43772;HTU21D;59066;54.782;32.024;2022-11-20T09:13:40;-3.89;75.83
43772;HTU21D;59066;54.782;32.024;2022-11-20T09:16:08;-4.10;74.09
43772;HTU21D;59066;54.782;32.024;2022-11-20T09:18:36;-4.19;74.26
43772;HTU21D;59066;54.782;32.024;2022-11-20T09:21:09;-4.10;74.80
43772;HTU21D;59066;54.782;32.024;2022-11-20T09:23:38;-3.98;74.38
43772;HTU21D;59066;54.782;32.024;2022-11-20T09:26:08;-3.81;74.95
43772;HTU21D;59066;54.782;32.024;2022-11-20T09:28:35;-3.65;75.11
43772;HTU21D;59066;54.782;32.024;2022-11-20T09:31:19;-3.40;75.28
43772;HTU21D;59066;54.782;32.024;2022-11-20T09:33:48;-3.25;74.63
43772;HTU21D;59066;54.782;32.024;2022-11-20T09:36:16;-3.47;73.17
43772;HTU21D;59066;54.782;32.024;2022-11-20T09:38:46;-3.38;73.68
43772;HTU21D;59066;54.782;32.024;2022-11-20T09:46:50;-3.19;73.86
43772;HTU21D;59066;54.782;32.024;2022-11-20T09:52:22;-2.89;73.15
43772;HTU21D;59066;54.782;32.024;2022-11-20T09:54:53;-2.75;73.28
43772;HTU21D;59066;54.782;32.024;2022-11-20T09:57:23;-2.80;72.51
43772;HTU21D;59066;54.782;32.024;2022-11-20T09:59:54;-3.01;72.45
43772;HTU21D;59066;54.782;32.024;2022-11-20T10:05:04;-2.77;72.90
43772;HTU21D;59066;54.782;32.024;2022-11-20T10:07:44;-2.15;74.24
43772;HTU21D;59066;54.782;32.024;2022-11-20T10:10:45;-1.32;73.22
43772;HTU21D;59066;54.782;32.024;2022-11-20T10:13:40;-1.14;71.55
43772;HTU21D;59066;54.782;32.024;2022-11-20T10:16:46;-0.99;72.08
43772;HTU21D;59066;54.782;32.024;2022-11-20T10:19:34;-0.66;71.55
43772;HTU21D;59066;54.782;32.024;2022-11-20T10:30:25;-1.04;72.16
43772;HTU21D;59066;54.782;32.024;2022-11-20T10:33:17;-0.85;72.83
43772;HTU21D;59066;54.782;32.024;2022-11-20T10:38:40;-0.67;73.24
43772;HTU21D;59066;54.782;32.024;2022-11-20T10:41:38;-1.16;69.99
43772;HTU21D;59066;54.782;32.024;2022-11-20T10:44:21;-1.65;70.89
43772;HTU21D;59066;54.782;32.024;2022-11-20T10:47:16;-1.35;73.43
43772;HTU21D;59066;54.782;32.024;2022-11-20T10:49:52;-0.66;71.35
43772;HTU21D;59066;54.782;32.024;2022-11-20T10:52:32;-0.35;69.19
43772;HTU21D;59066;54.782;32.024;2022-11-20T11:00:31;1.75;71.03
43772;HTU21D;59066;54.782;32.024;2022-11-20T11:02:58;1.67;70.16
43772;HTU21D;59066;54.782;32.024;2022-11-20T11:05:43;1.18;64.34
43772;HTU21D;59066;54.782;32.024;2022-11-20T11:08:15;0.48;66.63
43772;HTU21D;59066;54.782;32.024;2022-11-20T11:10:55;0.62;70.21
43772;HTU21D;59066;54.782;32.024;2022-11-20T11:13:28;0.74;71.45
43772;HTU21D;59066;54.782;32.024;2022-11-20T11:15:56;1.01;70.58
43772;HTU21D;59066;54.782;32.024;2022-11-20T11:18:27;0.57;68.09
43772;HTU21D;59066;54.782;32.024;2022-11-20T11:20:56;0.47;67.99
43772;HTU21D;59066;54.782;32.024;2022-11-20T11:23:38;0.72;68.91
43772;HTU21D;59066;54.782;32.024;2022-11-20T11:26:21;0.89;69.99
43772;HTU21D;59066;54.782;32.024;2022-11-20T11:29:02;1.09;70.60
43772;HTU21D;59066;54.782;32.024;2022-11-20T11:31:32;0.81;69.20
43772;HTU21D;59066;54.782;32.024;2022-11-20T11:34:08;0.23;68.39
43772;HTU21D;59066;54.782;32.024;2022-11-20T11:36:39;-0.49;66.75
43772;HTU21D;59066;54.782;32.024;2022-11-20T11:39:17;-0.22;70.46
43772;HTU21D;59066;54.782;32.024;2022-11-20T11:41:47;-0.37;68.46
43772;HTU21D;59066;54.782;32.024;2022-11-20T11:44:35;-0.47;68.84
43772;HTU21D;59066;54.782;32.024;2022-11-20T11:47:28;0.14;70.37
43772;HTU21D;59066;54.782;32.024;2022-11-20T11:50:02;0.31;70.59
43772;HTU21D;59066;54.782;32.024;2022-11-20T11:55:14;0.39;67.90
43772;HTU21D;59066;54.782;32.024;2022-11-20T11:57:52;0.40;68.38
43772;HTU21D;59066;54.782;32.024;2022-11-20T12:00:22;0.53;68.85
43772;HTU21D;59066;54.782;32.024;2022-11-20T12:03:13;0.60;65.98
43772;HTU21D;59066;54.782;32.024;2022-11-20T12:05:48;0.62;68.14
43772;HTU21D;59066;54.782;32.024;2022-11-20T12:08:25;0.94;68.56
43772;HTU21D;59066;54.782;32.024;2022-11-20T12:16:18;1.03;66.55
43772;HTU21D;59066;54.782;32.024;2022-11-20T12:18:52;0.97;68.73
43772;HTU21D;59066;54.782;32.024;2022-11-20T12:24:11;0.69;69.13
43772;HTU21D;59066;54.782;32.024;2022-11-20T12:29:48;0.07;66.38
43772;HTU21D;59066;54.782;32.024;2022-11-20T12:35:34;-1.03;67.69
43772;HTU21D;59066;54.782;32.024;2022-11-20T12:43:27;-2.04;68.99
43772;HTU21D;59066;54.782;32.024;2022-11-20T12:46:22;-2.35;69.26
43772;HTU21D;59066;54.782;32.024;2022-11-20T12:51:41;-2.82;69.35
43772;HTU21D;59066;54.782;32.024;2022-11-20T12:57:09;-3.30;70.09
43772;HTU21D;59066;54.782;32.024;2022-11-20T12:59:58;-3.32;70.33
43772;HTU21D;59066;54.782;32.024;2022-11-20T13:07:48;-3.63;70.88
43772;HTU21D;59066;54.782;32.024;2022-11-20T13:10:33;-3.63;70.79
43772;HTU21D;59066;54.782;32.024;2022-11-20T13:13:53;-3.78;70.81
43772;HTU21D;59066;54.782;32.024;2022-11-20T13:18:23;-3.91;70.69
43772;HTU21D;59066;54.782;32.024;2022-11-20T13:20:50;-4.01;70.70
43772;HTU21D;59066;54.782;32.024;2022-11-20T13:23:26;-3.97;70.74
43772;HTU21D;59066;54.782;32.024;2022-11-20T13:28:46;-4.08;70.71
43772;HTU21D;59066;54.782;32.024;2022-11-20T13:31:29;-4.24;70.28
43772;HTU21D;59066;54.782;32.024;2022-11-20T13:33:58;-4.36;70.36
43772;HTU21D;59066;54.782;32.024;2022-11-20T13:36:28;-4.46;70.48
43772;HTU21D;59066;54.782;32.024;2022-11-20T13:38:56;-4.36;70.71
43772;HTU21D;59066;54.782;32.024;2022-11-20T13:41:33;-4.38;70.20
43772;HTU21D;59066;54.782;32.024;2022-11-20T13:44:15;-4.37;70.16
43772;HTU21D;59066;54.782;32.024;2022-11-20T13:46:51;-4.42;69.81
43772;HTU21D;59066;54.782;32.024;2022-11-20T13:51:54;-4.64;70.07
43772;HTU21D;59066;54.782;32.024;2022-11-20T13:57:14;-4.81;70.48
43772;HTU21D;59066;54.782;32.024;2022-11-20T14:02:40;-4.74;70.71
43772;HTU21D;59066;54.782;32.024;2022-11-20T14:05:19;-4.75;70.64
43772;HTU21D;59066;54.782;32.024;2022-11-20T14:07:49;-4.74;70.60
43772;HTU21D;59066;54.782;32.024;2022-11-20T14:10:26;-4.74;70.57
43772;HTU21D;59066;54.782;32.024;2022-11-20T14:12:58;-4.75;70.61
43772;HTU21D;59066;54.782;32.024;2022-11-20T14:15:33;-4.70;70.61
43772;HTU21D;59066;54.782;32.024;2022-11-20T14:18:13;-4.65;70.51
43772;HTU21D;59066;54.782;32.024;2022-11-20T14:20:42;-4.55;70.41
43772;HTU21D;59066;54.782;32.024;2022-11-20T14:23:10;-4.58;70.38
43772;HTU21D;59066;54.782;32.024;2022-11-20T14:25:42;-4.70;70.71
43772;HTU21D;59066;54.782;32.024;2022-11-20T14:28:11;-4.65;71.02
43772;HTU21D;59066;54.782;32.024;2022-11-20T14:30:47;-4.60;70.94
43772;HTU21D;59066;54.782;32.024;2022-11-20T14:33:15;-4.72;71.09
43772;HTU21D;59066;54.782;32.024;2022-11-20T14:35:48;-4.81;71.71
43772;HTU21D;59066;54.782;32.024;2022-11-20T14:38:27;-4.81;71.77
43772;HTU21D;59066;54.782;32.024;2022-11-20T14:41:08;-4.81;72.13
43772;HTU21D;59066;54.782;32.024;2022-11-20T14:43:36;-4.82;72.11
43772;HTU21D;59066;54.782;32.024;2022-11-20T14:46:08;-4.87;72.01
43772;HTU21D;59066;54.782;32.024;2022-11-20T14:48:53;-5.04;72.25
43772;HTU21D;59066;54.782;32.024;2022-11-20T14:51:37;-5.04;72.76
43772;HTU21D;59066;54.782;32.024;2022-11-20T14:57:03;-4.97;72.45
43772;HTU21D;59066;54.782;32.024;2022-11-20T14:59:32;-4.90;72.64
43772;HTU21D;59066;54.782;32.024;2022-11-20T15:02:06;-4.79;72.54
43772;HTU21D;59066;54.782;32.024;2022-11-20T15:04:50;-4.75;72.19
43772;HTU21D;59066;54.782;32.024;2022-11-20T15:10:09;-4.71;71.82
43772;HTU21D;59066;54.782;32.024;2022-11-20T15:12:53;-4.65;72.13
43772;HTU21D;59066;54.782;32.024;2022-11-20T15:18:16;-4.87;71.65
43772;HTU21D;59066;54.782;32.024;2022-11-20T15:20:45;-4.86;72.54
43772;HTU21D;59066;54.782;32.024;2022-11-20T15:23:16;-4.82;72.45
43772;HTU21D;59066;54.782;32.024;2022-11-20T15:25:46;-4.93;72.09
43772;HTU21D;59066;54.782;32.024;2022-11-20T15:30:46;-5.14;72.70
43772;HTU21D;59066;54.782;32.024;2022-11-20T15:33:14;-5.19;72.91
43772;HTU21D;59066;54.782;32.024;2022-11-20T15:35:43;-5.14;73.30
43772;HTU21D;59066;54.782;32.024;2022-11-20T15:38:10;-5.09;73.45
43772;HTU21D;59066;54.782;32.024;2022-11-20T15:40:38;-4.66;73.31
43772;HTU21D;59066;54.782;32.024;2022-11-20T15:43:05;-4.85;72.70
43772;HTU21D;59066;54.782;32.024;2022-11-20T15:45:45;-4.84;72.45
43772;HTU21D;59066;54.782;32.024;2022-11-20T15:48:41;-4.88;72.47
43772;HTU21D;59066;54.782;32.024;2022-11-20T15:53:47;-4.99;72.77
43772;HTU21D;59066;54.782;32.024;2022-11-20T15:56:15;-4.98;72.96
43772;HTU21D;59066;54.782;32.024;2022-11-20T15:58:43;-4.94;72.93
43772;HTU21D;59066;54.782;32.024;2022-11-20T16:01:16;-4.88;73.13
43772;HTU21D;59066;54.782;32.024;2022-11-20T16:03:44;-4.85;72.94
43772;HTU21D;59066;54.782;32.024;2022-11-20T16:06:13;-4.85;72.86
43772;HTU21D;59066;54.782;32.024;2022-11-20T16:08:41;-4.73;72.92
43772;HTU21D;59066;54.782;32.024;2022-11-20T16:11:15;-4.67;72.70
43772;HTU21D;59066;54.782;32.024;2022-11-20T16:13:44;-4.68;72.82
43772;HTU21D;59066;54.782;32.024;2022-11-20T16:16:36;-4.61;72.79
43772;HTU21D;59066;54.782;32.024;2022-11-20T16:19:04;-4.59;72.59
43772;HTU21D;59066;54.782;32.024;2022-11-20T16:21:32;-4.68;72.45
43772;HTU21D;59066;54.782;32.024;2022-11-20T16:24:04;-4.95;72.40
43772;HTU21D;59066;54.782;32.024;2022-11-20T16:26:32;-5.00;72.90
43772;HTU21D;59066;54.782;32.024;2022-11-20T16:29:01;-4.90;73.37
43772;HTU21D;59066;54.782;32.024;2022-11-20T16:31:29;-4.81;73.16
43772;HTU21D;59066;54.782;32.024;2022-11-20T16:34:03;-4.80;73.28
43772;HTU21D;59066;54.782;32.024;2022-11-20T16:36:35;-4.73;73.07
43772;HTU21D;59066;54.782;32.024;2022-11-20T16:39:08;-4.66;73.07
43772;HTU21D;59066;54.782;32.024;2022-11-20T16:41:37;-4.56;72.87
43772;HTU21D;59066;54.782;32.024;2022-11-20T16:44:09;-4.55;72.51
43772;HTU21D;59066;54.782;32.024;2022-11-20T16:46:42;-4.69;72.67
43772;HTU21D;59066;54.782;32.024;2022-11-20T16:49:12;-4.67;72.83
43772;HTU21D;59066;54.782;32.024;2022-11-20T16:51:40;-4.70;72.74
43772;HTU21D;59066;54.782;32.024;2022-11-20T16:54:14;-4.71;72.99
43772;HTU21D;59066;54.782;32.024;2022-11-20T16:56:47;-4.69;72.91
43772;HTU21D;59066;54.782;32.024;2022-11-20T16:59:14;-4.66;72.80
43772;HTU21D;59066;54.782;32.024;2022-11-20T17:01:41;-4.70;72.90
43772;HTU21D;59066;54.782;32.024;2022-11-20T17:04:11;-4.66;72.88